Holiday Hills, Illinois
Current Conditions -  °F | °C
As of 8:07 PM on Tuesday 25 Nov 2014 (Local Time) from KUGN Reporting Station
Scattered Clouds Scattered Clouds  
Wind Chill:   Ceiling: Unl
Heat Index: 16°   Visibility: 9mi
Dew Point: 13°   Wind: 5mph
Humidity: 88%   Direction: 220°SW
Pressure: 30.17"   Gusts: NA
Location:  42.338°N, 88.2857°W
Report Text: KUGN 260207Z 22004KT 9SM SCT015 M09/M11 A3017 RMK AO2 T10891106
Loading
Personal Weather Stations






























Interactive Weather Map New forecast layout! Learn more

10-Day Weather Forecast

Advertisements
Track Severe Weather on mobile